Time;durP1;ratioP1;P1;durP2;ratioP2;P2;SDS_P1;SDS_P2;PMS_P1;PMS_P2;Temp;Humidity;BMP_temperature;BMP_pressure;BME280_temperature;BME280_humidity;BME280_pressure;Samples;Min_cycle;Max_cycle;Signal;HPM_P1;HPM_P2
2023/08/02 00:00:44;;;;;;;6.28;5.68;;;;;;;19.52;73.69;95828.84;5113646;28;20127;-65
2023/08/02 00:03:13;;;;;;;6.13;5.55;;;;;;;19.51;74.10;95829.81;5114218;28;20178;-65
2023/08/02 00:05:40;;;;;;;6.20;5.10;;;;;;;19.52;73.26;95829.69;5113985;28;20119;-66
2023/08/02 00:08:08;;;;;;;10.27;5.65;;;;;;;19.48;73.03;95824.78;5114285;28;20077;-65
2023/08/02 00:10:38;;;;;;;6.15;5.60;;;;;;;19.45;73.11;95823.22;5114230;28;20051;-65
2023/08/02 00:13:06;;;;;;;6.72;5.47;;;;;;;19.49;73.27;95822.00;5114492;28;20117;-66
2023/08/02 00:15:40;;;;;;;6.93;6.18;;;;;;;19.51;73.10;95824.50;5113903;28;20143;-66
2023/08/02 00:18:08;;;;;;;6.95;5.05;;;;;;;19.51;72.96;95822.69;5114170;28;20112;-64
2023/08/02 00:20:37;;;;;;;6.35;5.15;;;;;;;19.49;72.35;95829.09;5114077;28;20043;-64
2023/08/02 00:23:04;;;;;;;6.85;5.97;;;;;;;19.42;73.31;95834.09;5113971;28;20043;-66
2023/08/02 00:25:32;;;;;;;5.97;5.45;;;;;;;19.39;73.59;95829.88;5114054;28;20413;-64
2023/08/02 00:28:00;;;;;;;5.75;5.25;;;;;;;19.41;73.37;95833.25;5113835;28;20043;-65
2023/08/02 00:30:30;;;;;;;5.45;5.03;;;;;;;19.40;73.37;95834.22;5113794;28;20093;-67
2023/08/02 00:32:59;;;;;;;6.45;5.78;;;;;;;19.42;73.17;95832.25;5113813;28;20100;-66
2023/08/02 00:35:26;;;;;;;6.95;5.97;;;;;;;19.45;72.75;95820.56;5113722;28;20048;-65
2023/08/02 00:37:53;;;;;;;5.75;5.15;;;;;;;19.42;72.64;95819.00;5113771;28;20053;-66
2023/08/02 00:40:25;;;;;;;8.65;5.70;;;;;;;19.40;73.06;95823.63;5113953;28;20048;-66
2023/08/02 00:42:53;;;;;;;7.82;5.72;;;;;;;19.36;72.43;95819.56;5113617;28;20122;-66
2023/08/02 00:45:20;;;;;;;6.05;5.55;;;;;;;19.34;73.31;95821.50;5113527;28;20096;-66
2023/08/02 00:47:47;;;;;;;5.93;5.43;;;;;;;19.34;73.00;95807.38;5113756;28;20082;-66
2023/08/02 00:50:16;;;;;;;6.05;5.35;;;;;;;19.24;73.52;95815.28;5113692;28;20051;-66
2023/08/02 00:52:43;;;;;;;7.78;5.68;;;;;;;19.13;74.35;95806.44;5113587;28;20097;-67
2023/08/02 00:55:11;;;;;;;6.20;5.60;;;;;;;19.08;75.32;95813.09;5113607;28;20109;-66
2023/08/02 00:57:38;;;;;;;5.97;5.47;;;;;;;19.05;75.20;95806.19;5113626;28;20046;-67
2023/08/02 01:00:06;;;;;;;7.85;5.95;;;;;;;19.01;75.04;95820.69;5113491;28;20458;-66
2023/08/02 01:02:33;;;;;;;6.25;5.57;;;;;;;18.96;76.12;95814.94;5113608;28;20058;-66
2023/08/02 01:05:01;;;;;;;5.97;5.50;;;;;;;19.00;76.95;95816.34;5113164;28;20047;-66
2023/08/02 01:07:34;;;;;;;5.82;5.20;;;;;;;19.03;75.98;95824.06;5113612;28;20097;-66
2023/08/02 01:10:09;;;;;;;8.13;5.60;;;;;;;19.02;75.75;95820.56;5113483;28;20079;-65
2023/08/02 01:12:39;;;;;;;7.72;6.22;;;;;;;19.06;75.31;95819.31;5115343;28;20047;-66
2023/08/02 01:15:07;;;;;;;5.53;5.03;;;;;;;19.09;75.06;95817.41;5117699;28;20040;-66
2023/08/02 01:17:36;;;;;;;6.55;5.60;;;;;;;19.06;75.87;95829.09;5117504;28;20079;-65
2023/08/02 01:20:06;;;;;;;6.40;5.80;;;;;;;19.02;76.08;95820.56;5117495;28;20103;-65
2023/08/02 01:22:33;;;;;;;6.25;5.68;;;;;;;19.03;75.65;95832.81;5117507;28;20047;-65
2023/08/02 01:25:00;;;;;;;6.05;5.38;;;;;;;19.03;75.52;95832.00;5117476;28;20048;-66
2023/08/02 01:27:37;;;;;;;6.03;5.43;;;;;;;19.02;75.36;95835.63;5117480;28;20057;-66
2023/08/02 01:30:07;;;;;;;5.78;5.28;;;;;;;18.93;75.14;95823.97;5117310;28;20058;-66
2023/08/02 01:32:34;;;;;;;7.60;5.35;;;;;;;18.90;74.59;95825.06;5117174;28;20066;-66
2023/08/02 01:35:02;;;;;;;5.78;5.25;;;;;;;18.96;74.58;95817.59;5117310;28;20048;-66
2023/08/02 01:37:32;;;;;;;6.18;5.43;;;;;;;18.84;74.67;95817.63;5117251;28;20093;-66
2023/08/02 01:40:00;;;;;;;6.40;5.80;;;;;;;18.75;75.42;95821.88;5117139;28;20138;-66
2023/08/02 01:42:27;;;;;;;6.30;5.72;;;;;;;18.69;75.67;95817.94;5117588;28;20404;-66
2023/08/02 01:44:54;;;;;;;6.32;5.65;;;;;;;18.69;75.90;95817.94;5116884;28;20051;-65
2023/08/02 01:47:21;;;;;;;6.55;5.95;;;;;;;18.75;75.66;95827.19;5117056;28;20082;-66
2023/08/02 01:49:48;;;;;;;6.18;5.43;;;;;;;18.76;75.26;95828.88;5116870;28;20081;-66
2023/08/02 01:52:15;;;;;;;5.97;5.40;;;;;;;18.77;75.22;95829.69;5116913;28;20548;-67
2023/08/02 01:54:44;;;;;;;5.85;5.35;;;;;;;18.74;74.80;95829.94;5117019;28;20044;-66
2023/08/02 01:57:11;;;;;;;6.47;5.88;;;;;;;18.69;75.05;95827.69;5116811;28;20412;-66
2023/08/02 01:59:38;;;;;;;6.30;5.47;;;;;;;18.69;75.74;95830.31;5116611;28;20460;-66
2023/08/02 02:02:05;;;;;;;6.28;5.68;;;;;;;18.67;75.37;95827.81;5116605;28;20052;-65
2023/08/02 02:04:32;;;;;;;8.23;5.88;;;;;;;18.62;75.41;95822.06;5116455;28;20052;-66
2023/08/02 02:06:59;;;;;;;6.05;5.45;;;;;;;18.64;75.28;95829.88;5116688;28;20052;-66
2023/08/02 02:09:26;;;;;;;5.38;4.93;;;;;;;18.60;75.23;95828.47;5116639;28;20086;-66
2023/08/02 02:11:55;;;;;;;6.32;5.28;;;;;;;18.63;75.23;95834.31;5116503;28;20569;-66
2023/08/02 02:14:22;;;;;;;6.82;6.18;;;;;;;18.59;75.35;95832.91;5116441;28;20044;-66
2023/08/02 02:16:49;;;;;;;8.30;5.78;;;;;;;18.57;75.32;95832.19;5116480;28;20047;-66
2023/08/02 02:19:16;;;;;;;6.88;5.50;;;;;;;18.55;75.66;95824.34;5116388;28;20043;-66
2023/08/02 02:21:44;;;;;;;9.45;5.60;;;;;;;18.59;75.75;95837.34;5116278;28;20069;-66
2023/08/02 02:24:11;;;;;;;7.10;5.20;;;;;;;18.60;75.21;95834.56;5115215;28;20528;-66
2023/08/02 02:26:38;;;;;;;6.20;5.55;;;;;;;18.55;75.21;95839.44;5116178;28;20048;-66
2023/08/02 02:29:07;;;;;;;6.10;5.50;;;;;;;18.51;75.38;95836.16;5116411;28;20069;-66
2023/08/02 02:31:34;;;;;;;6.75;6.15;;;;;;;18.51;75.63;95830.88;5116271;28;20048;-66
2023/08/02 02:34:01;;;;;;;6.75;6.15;;;;;;;18.53;75.37;95833.41;5116116;28;20054;-66
2023/08/02 02:36:28;;;;;;;5.82;5.32;;;;;;;18.54;75.98;95835.06;5116011;28;20051;-66
2023/08/02 02:38:55;;;;;;;6.60;6.00;;;;;;;18.53;76.01;95833.41;5116176;28;20051;-66
2023/08/02 02:41:23;;;;;;;7.68;5.68;;;;;;;18.53;75.48;95828.09;5115907;28;20048;-67
2023/08/02 02:43:50;;;;;;;7.13;5.72;;;;;;;18.51;75.33;95824.75;5115801;28;20132;-66
2023/08/02 02:46:18;;;;;;;5.68;5.18;;;;;;;18.48;75.83;95823.19;5115721;28;20471;-66
2023/08/02 02:48:45;;;;;;;6.45;5.40;;;;;;;18.49;76.05;95829.31;5115736;28;20505;-66
2023/08/02 02:51:12;;;;;;;7.00;6.40;;;;;;;18.50;76.30;95833.66;5115770;28;20047;-66
2023/08/02 02:53:39;;;;;;;6.22;5.68;;;;;;;18.53;75.64;95836.03;5115867;28;20097;-66
2023/08/02 02:56:07;;;;;;;7.15;5.90;;;;;;;18.52;75.65;95842.31;5115758;28;20047;-65
2023/08/02 02:58:34;;;;;;;7.20;6.03;;;;;;;18.52;75.33;95840.53;5115515;28;20047;-67
2023/08/02 03:01:01;;;;;;;6.50;5.80;;;;;;;18.51;76.10;95845.94;5115577;28;20075;-66
2023/08/02 03:03:29;;;;;;;7.22;5.80;;;;;;;18.48;75.86;95843.53;5115294;28;20555;-66
2023/08/02 03:05:57;;;;;;;7.78;6.97;;;;;;;18.49;76.52;95847.88;5115370;28;20131;-66
2023/08/02 03:08:24;;;;;;;7.47;5.88;;;;;;;18.47;76.61;95849.78;5115404;28;20413;-66
2023/08/02 03:10:51;;;;;;;9.05;6.38;;;;;;;18.49;75.95;95848.72;5115471;28;20054;-66
2023/08/02 03:13:19;;;;;;;7.45;5.65;;;;;;;18.46;75.64;95848.09;5115197;28;20047;-66
2023/08/02 03:15:46;;;;;;;6.63;6.03;;;;;;;18.43;75.67;95843.91;5115075;28;20058;-66
2023/08/02 03:18:12;;;;;;;7.35;6.55;;;;;;;18.28;77.76;95844.19;5115277;28;20109;-65
2023/08/02 03:20:42;;;;;;;6.38;5.85;;;;;;;18.23;81.57;95845.50;5115158;28;20079;-66
2023/08/02 03:23:09;;;;;;;7.80;7.10;;;;;;;18.10;82.87;95841.22;5115318;28;20058;-65
2023/08/02 03:25:36;;;;;;;6.85;6.15;;;;;;;18.12;82.03;95843.75;5115015;28;20214;-65
2023/08/02 03:28:04;;;;;;;7.05;6.45;;;;;;;18.15;80.53;95841.66;5114926;28;20509;-66
2023/08/02 03:30:31;;;;;;;7.22;6.53;;;;;;;18.24;79.61;95849.84;5115020;28;20497;-65
2023/08/02 03:32:58;;;;;;;6.28;5.72;;;;;;;18.31;78.84;95851.84;5114976;28;20079;-65
2023/08/02 03:35:25;;;;;;;6.63;5.88;;;;;;;18.30;78.55;95844.03;5113983;28;20048;-65
2023/08/02 03:37:54;;;;;;;8.27;6.60;;;;;;;18.38;78.52;95846.94;5114739;28;20486;-65
2023/08/02 03:40:21;;;;;;;7.55;6.80;;;;;;;18.46;78.00;95841.03;5114842;28;20092;-66
2023/08/02 03:42:49;;;;;;;7.07;6.35;;;;;;;18.51;78.21;95843.28;5114776;28;20048;-66
2023/08/02 03:45:16;;;;;;;6.55;5.95;;;;;;;18.56;77.77;95849.91;5114646;28;20090;-66
2023/08/02 03:47:43;;;;;;;8.20;5.88;;;;;;;18.65;77.55;95844.78;5114546;28;20485;-66
2023/08/02 03:50:13;;;;;;;6.93;6.20;;;;;;;18.77;77.36;95850.91;5114734;28;20047;-66
2023/08/02 03:52:40;;;;;;;9.55;6.13;;;;;;;18.90;77.22;95850.75;5114684;28;20048;-66
2023/08/02 03:55:09;;;;;;;6.47;5.85;;;;;;;18.99;76.98;95854.44;5114509;28;20090;-66
2023/08/02 03:57:37;;;;;;;7.28;6.68;;;;;;;19.12;76.69;95849.81;5114597;28;20549;-66
2023/08/02 04:00:05;;;;;;;7.07;6.38;;;;;;;19.34;75.99;95845.34;5114511;28;20122;-66
2023/08/02 04:02:32;;;;;;;6.85;6.25;;;;;;;19.61;76.39;95841.31;5114332;28;20054;-66
2023/08/02 04:04:59;;;;;;;6.88;6.13;;;;;;;19.98;75.13;95844.41;5114169;28;20059;-66
2023/08/02 04:07:27;;;;;;;7.85;5.07;;;;;;;20.36;73.24;95839.34;5114318;28;20039;-66
2023/08/02 04:09:55;;;;;;;5.80;5.20;;;;;;;20.72;71.45;95839.69;5114293;28;20142;-66
2023/08/02 04:12:24;;;;;;;5.28;4.78;;;;;;;21.10;70.21;95845.16;5114282;28;20058;-66
2023/08/02 04:14:52;;;;;;;5.97;4.15;;;;;;;21.49;69.38;95838.13;5114057;28;20050;-66
2023/08/02 04:17:19;;;;;;;4.55;4.15;;;;;;;21.88;67.91;95842.50;5114020;28;20047;-66
2023/08/02 04:19:46;;;;;;;4.45;4.05;;;;;;;22.29;66.99;95840.34;5114194;28;20161;-66
2023/08/02 04:22:13;;;;;;;5.47;4.13;;;;;;;22.77;64.91;95836.69;5113982;28;20050;-66
2023/08/02 04:24:41;;;;;;;4.72;4.30;;;;;;;23.21;62.67;95841.25;5114031;28;20058;-67
2023/08/02 04:27:08;;;;;;;5.50;4.18;;;;;;;23.61;61.15;95841.69;5113930;28;20044;-66
2023/08/02 04:29:37;;;;;;;4.20;3.80;;;;;;;23.97;59.81;95846.06;5113826;28;20495;-66
2023/08/02 04:32:05;;;;;;;3.95;3.47;;;;;;;24.22;59.05;95848.84;5113878;28;20090;-66
2023/08/02 04:34:32;;;;;;;4.93;3.55;;;;;;;24.39;59.11;95854.25;5113855;28;20051;-67
2023/08/02 04:36:59;;;;;;;3.88;3.58;;;;;;;24.66;58.57;95847.00;5113715;28;20512;-64
2023/08/02 04:39:27;;;;;;;4.10;3.70;;;;;;;24.91;57.50;95850.56;5113825;28;20125;-67
2023/08/02 04:41:55;;;;;;;4.68;3.97;;;;;;;25.17;56.87;95852.25;5113852;28;20055;-66
2023/08/02 04:44:22;;;;;;;4.90;4.18;;;;;;;25.55;55.89;95850.91;5113576;28;20138;-66
2023/08/02 04:46:55;;;;;;;3.72;3.38;;;;;;;25.82;54.81;95844.34;5113365;28;20052;-66
2023/08/02 04:49:23;;;;;;;4.05;3.67;;;;;;;25.88;54.05;95850.84;5113443;28;20052;-66
2023/08/02 04:51:50;;;;;;;4.22;3.53;;;;;;;26.09;54.93;95852.97;5113716;28;20535;-66
2023/08/02 04:54:18;;;;;;;3.95;3.63;;;;;;;26.41;54.55;95858.38;5113761;28;20130;-66
2023/08/02 04:56:45;;;;;;;3.67;3.38;;;;;;;26.62;53.45;95862.28;5113463;28;20374;-66
2023/08/02 04:59:13;;;;;;;3.55;3.25;;;;;;;26.72;52.88;95860.22;5113553;28;20047;-66
2023/08/02 05:01:40;;;;;;;4.20;3.80;;;;;;;26.87;52.86;95854.94;5113523;28;20130;-66
2023/08/02 05:04:09;;;;;;;4.63;4.20;;;;;;;27.15;51.44;95863.50;5113350;28;20047;-66
2023/08/02 05:06:37;;;;;;;5.03;3.92;;;;;;;27.40;50.00;95856.06;5113518;28;20135;-66
2023/08/02 05:09:04;;;;;;;4.97;4.47;;;;;;;27.73;48.89;95855.81;5113395;28;20058;-66
2023/08/02 05:11:32;;;;;;;4.85;4.10;;;;;;;27.99;48.45;95854.50;5113497;28;20134;-66
2023/08/02 05:14:01;;;;;;;5.03;4.10;;;;;;;28.28;48.65;95851.97;5113567;28;20054;-67
2023/08/02 05:16:28;;;;;;;3.90;3.47;;;;;;;28.70;48.77;95854.16;5113363;28;20386;-66
2023/08/02 05:18:56;;;;;;;6.25;3.88;;;;;;;29.10;47.51;95854.59;5113326;28;20052;-67
2023/08/02 05:21:25;;;;;;;4.00;3.70;;;;;;;29.54;47.37;95859.94;5113428;28;20051;-67
2023/08/02 05:23:52;;;;;;;4.25;3.75;;;;;;;29.83;46.47;95863.47;5113349;28;20044;-66
2023/08/02 05:26:20;;;;;;;5.00;4.20;;;;;;;30.08;45.76;95859.47;5113261;28;20141;-67
2023/08/02 05:28:47;;;;;;;4.15;3.72;;;;;;;30.31;44.51;95866.50;5113202;28;20052;-67
2023/08/02 05:31:15;;;;;;;5.78;3.83;;;;;;;30.37;44.60;95863.00;5113321;28;20048;-66
2023/08/02 05:33:42;;;;;;;5.60;4.10;;;;;;;30.19;44.47;95864.34;5113222;28;20135;-66
2023/08/02 05:36:11;;;;;;;4.95;4.45;;;;;;;30.07;45.25;95868.63;5113201;28;20039;-67
2023/08/02 05:38:41;;;;;;;5.00;4.50;;;;;;;30.02;46.15;95863.81;5113193;28;20191;-67
2023/08/02 05:41:08;;;;;;;4.15;3.85;;;;;;;30.19;45.67;95863.53;5113134;28;20558;-66
2023/08/02 05:43:36;;;;;;;4.82;4.38;;;;;;;30.16;43.87;95861.19;5113150;28;20048;-67
2023/08/02 05:46:03;;;;;;;4.82;4.35;;;;;;;30.39;44.34;95864.44;5112966;28;20059;-65
2023/08/02 05:48:31;;;;;;;5.65;4.07;;;;;;;30.61;44.28;95858.09;5112107;28;20052;-66
2023/08/02 05:50:59;;;;;;;4.45;3.90;;;;;;;30.77;44.15;95859.63;5113023;28;20417;-67
2023/08/02 05:53:26;;;;;;;7.20;3.65;;;;;;;31.04;42.77;95865.09;5113254;28;20040;-66
2023/08/02 05:55:57;;;;;;;4.82;4.43;;;;;;;31.17;41.97;95863.44;5113083;28;20087;-67
2023/08/02 05:58:25;;;;;;;4.30;3.85;;;;;;;31.42;42.19;95869.09;5112947;28;20044;-65
2023/08/02 06:00:52;;;;;;;5.30;4.03;;;;;;;31.65;42.94;95857.03;5116517;28;20516;-65
2023/08/02 06:03:19;;;;;;;6.97;4.30;;;;;;;31.81;41.70;95860.34;5116702;28;20048;-66
2023/08/02 06:05:48;;;;;;;4.43;4.03;;;;;;;31.98;40.98;95868.88;5116391;28;20055;-66
2023/08/02 06:08:15;;;;;;;4.80;4.40;;;;;;;32.19;40.77;95867.78;5116639;28;20058;-66
2023/08/02 06:10:42;;;;;;;5.05;4.55;;;;;;;32.38;40.08;95868.75;5116475;28;20083;-67
2023/08/02 06:13:11;;;;;;;7.25;4.70;;;;;;;32.48;38.14;95864.78;5116494;28;20546;-66
2023/08/02 06:15:38;;;;;;;5.70;3.92;;;;;;;32.48;38.79;95860.22;5116600;28;20079;-67
2023/08/02 06:18:05;;;;;;;6.50;4.60;;;;;;;32.52;39.35;95858.75;5116546;28;20104;-67
2023/08/02 06:20:32;;;;;;;7.55;4.40;;;;;;;32.63;39.16;95867.25;5116442;28;20071;-66
2023/08/02 06:23:00;;;;;;;6.57;5.10;;;;;;;32.56;38.75;95856.44;5116364;28;20043;-65
2023/08/02 06:25:28;;;;;;;8.27;4.55;;;;;;;32.77;38.84;95859.88;5116199;28;20091;-67
2023/08/02 06:27:55;;;;;;;5.40;4.90;;;;;;;33.03;39.17;95853.50;5116421;28;20105;-67
2023/08/02 06:30:24;;;;;;;7.57;4.60;;;;;;;33.33;38.54;95852.06;5116266;28;20622;-66
2023/08/02 06:32:51;;;;;;;7.18;4.68;;;;;;;33.55;37.33;95854.38;5116087;28;20466;-66
2023/08/02 06:35:18;;;;;;;9.15;4.57;;;;;;;33.47;37.53;95850.06;5116020;28;20048;-66
2023/08/02 06:37:46;;;;;;;7.82;4.40;;;;;;;33.05;38.50;95860.59;5115977;28;20093;-65
2023/08/02 06:40:13;;;;;;;5.47;4.57;;;;;;;32.70;39.07;95859.91;5116095;28;20052;-66
2023/08/02 06:42:40;;;;;;;5.10;4.60;;;;;;;32.64;39.31;95858.91;5116004;28;20090;-66
2023/08/02 06:45:08;;;;;;;5.43;4.93;;;;;;;32.71;39.19;95858.06;5115792;28;20564;-67
2023/08/02 06:47:38;;;;;;;4.82;4.43;;;;;;;32.96;39.03;95857.28;5115852;28;20175;-66
2023/08/02 06:50:08;;;;;;;5.43;4.93;;;;;;;33.18;38.39;95863.22;5116007;28;20628;-66
2023/08/02 06:52:39;;;;;;;5.75;5.15;;;;;;;33.19;38.04;95861.34;5115773;28;20047;-65
2023/08/02 06:55:07;;;;;;;8.88;5.15;;;;;;;33.14;38.42;95864.69;5115776;28;20092;-67
2023/08/02 06:57:34;;;;;;;8.52;5.32;;;;;;;32.87;38.22;95856.72;5115723;28;20055;-67
2023/08/02 07:00:01;;;;;;;5.28;4.82;;;;;;;32.93;38.53;95858.56;5115590;28;20051;-67
2023/08/02 07:02:29;;;;;;;5.60;5.03;;;;;;;32.94;38.93;95852.09;5115470;28;20047;-67
2023/08/02 07:04:58;;;;;;;5.90;4.90;;;;;;;32.80;39.06;95850.50;5115294;28;20478;-67
2023/08/02 07:07:26;;;;;;;5.20;4.70;;;;;;;32.60;39.39;95854.13;5115599;28;20463;-66
2023/08/02 07:09:54;;;;;;;5.43;4.97;;;;;;;32.39;39.44;95850.66;5115272;28;20051;-67
2023/08/02 07:12:22;;;;;;;5.47;5.07;;;;;;;32.17;40.72;95844.72;5115249;28;20048;-67
2023/08/02 07:14:50;;;;;;;5.05;4.65;;;;;;;31.83;40.88;95852.84;5115344;28;20131;-67
2023/08/02 07:17:17;;;;;;;8.60;5.00;;;;;;;31.59;41.83;95853.31;5115225;28;20486;-66
2023/08/02 07:19:44;;;;;;;8.98;5.47;;;;;;;31.51;42.25;95853.50;5115336;28;20051;-65
2023/08/02 07:22:17;;;;;;;11.00;5.82;;;;;;;31.48;41.58;95851.25;5115179;28;20044;-66
2023/08/02 07:24:45;;;;;;;10.02;5.63;;;;;;;31.36;41.75;95853.75;5115133;28;20489;-65
2023/08/02 07:27:12;;;;;;;7.88;5.65;;;;;;;31.36;42.04;95851.03;5115095;28;20104;-67
2023/08/02 07:29:41;;;;;;;11.90;5.70;;;;;;;31.34;42.23;95851.22;5115154;28;20044;-67
2023/08/02 07:32:09;;;;;;;8.32;5.75;;;;;;;31.08;42.53;95850.13;5115110;28;20083;-67
2023/08/02 07:34:39;;;;;;;9.82;5.80;;;;;;;31.05;43.46;95849.72;5115092;28;20043;-65
2023/08/02 07:37:07;;;;;;;12.48;5.43;;;;;;;31.14;42.68;95851.19;5115062;28;20051;-65
2023/08/02 07:39:40;;;;;;;10.45;6.03;;;;;;;31.32;42.21;95850.56;5114821;28;20075;-66
2023/08/02 07:42:09;;;;;;;10.55;5.55;;;;;;;31.35;42.27;95854.75;5114756;28;20044;-66
2023/08/02 07:44:38;;;;;;;8.13;5.15;;;;;;;31.34;41.98;95853.91;5115042;28;20047;-66
2023/08/02 07:47:06;;;;;;;9.75;6.00;;;;;;;31.41;42.83;95859.34;5114535;28;20073;-66
2023/08/02 07:49:33;;;;;;;11.05;5.55;;;;;;;31.69;41.75;95871.78;5114588;28;20048;-67
2023/08/02 07:52:00;;;;;;;6.88;4.72;;;;;;;32.02;41.15;95873.66;5114570;28;20048;-66
2023/08/02 07:54:27;;;;;;;10.98;5.50;;;;;;;32.46;40.67;95872.28;5114507;28;20055;-67
2023/08/02 07:56:56;;;;;;;10.50;5.65;;;;;;;32.98;39.56;95866.00;5114397;28;20066;-65
2023/08/02 07:59:24;;;;;;;7.07;5.07;;;;;;;33.41;39.27;95868.03;5114496;28;20546;-67
2023/08/02 08:01:51;;;;;;;6.82;5.20;;;;;;;33.58;36.48;95870.19;5114480;28;20075;-66
2023/08/02 08:04:19;;;;;;;7.55;5.30;;;;;;;33.34;37.36;95859.13;5114158;28;20489;-67
2023/08/02 08:06:47;;;;;;;6.82;5.10;;;;;;;33.13;37.91;95865.72;5114273;28;20043;-67
2023/08/02 08:09:15;;;;;;;13.80;6.15;;;;;;;33.22;39.15;95855.47;5114278;28;20104;-67
2023/08/02 08:11:42;;;;;;;12.10;5.72;;;;;;;33.55;38.77;95858.97;5114507;28;20040;-67
2023/08/02 08:14:10;;;;;;;7.57;5.68;;;;;;;33.82;37.96;95864.16;5114278;28;20086;-65
2023/08/02 08:16:38;;;;;;;8.18;6.30;;;;;;;33.77;36.60;95860.25;5114095;28;20040;-67
2023/08/02 08:19:05;;;;;;;9.25;5.65;;;;;;;33.75;36.21;95862.38;5114256;28;20110;-65
2023/08/02 08:21:32;;;;;;;8.95;5.15;;;;;;;33.81;37.92;95862.50;5113412;28;20416;-65
2023/08/02 08:24:00;;;;;;;7.72;5.45;;;;;;;34.07;37.07;95855.97;5113988;28;20420;-67
2023/08/02 08:26:27;;;;;;;11.93;5.63;;;;;;;34.53;36.88;95861.13;5113948;28;20126;-67
2023/08/02 08:28:57;;;;;;;8.63;5.10;;;;;;;34.81;36.22;95857.03;5114049;28;20040;-66
2023/08/02 08:31:28;;;;;;;13.70;5.70;;;;;;;34.94;34.96;95852.50;5113908;28;20052;-66
2023/08/02 08:33:56;;;;;;;9.68;5.40;;;;;;;34.90;36.55;95852.13;5113845;28;20407;-66
2023/08/02 08:36:25;;;;;;;8.18;6.07;;;;;;;34.76;35.72;95855.00;5113799;28;20082;-66
2023/08/02 08:38:53;;;;;;;9.05;5.57;;;;;;;34.98;35.40;95859.13;5113777;28;20052;-67
2023/08/02 08:41:22;;;;;;;7.47;6.07;;;;;;;35.29;35.44;95857.22;5113628;28;20055;-66
2023/08/02 08:43:50;;;;;;;9.95;5.82;;;;;;;35.23;35.94;95853.53;5113818;28;20477;-65
2023/08/02 08:46:18;;;;;;;10.00;6.00;;;;;;;35.27;34.51;95852.00;5113750;28;20114;-66
2023/08/02 08:48:49;;;;;;;7.32;6.18;;;;;;;35.34;34.53;95846.50;5113741;28;20071;-67
2023/08/02 08:51:20;;;;;;;10.85;6.30;;;;;;;35.41;33.20;95855.34;5113763;28;20091;-66
2023/08/02 08:53:49;;;;;;;7.18;5.97;;;;;;;35.44;32.80;95848.63;5113753;28;20070;-67
2023/08/02 08:56:23;;;;;;;6.20;5.57;;;;;;;35.59;33.74;95850.88;5113547;28;20055;-65
2023/08/02 08:58:55;;;;;;;6.50;5.97;;;;;;;35.52;33.84;95840.09;5113594;28;20121;-67
2023/08/02 09:01:24;;;;;;;7.32;6.57;;;;;;;35.45;33.57;95847.53;5113283;28;20501;-66
2023/08/02 09:03:57;;;;;;;6.65;5.78;;;;;;;35.62;33.52;95841.41;5113476;28;20460;-68
2023/08/02 09:06:28;;;;;;;359.42;37.88;;;;;;;35.88;33.23;95839.31;5113332;28;20052;-65
2023/08/02 09:08:58;;;;;;;8.07;6.07;;;;;;;36.13;33.07;95843.66;5113418;28;20047;-65
2023/08/02 09:11:27;;;;;;;7.63;6.38;;;;;;;36.07;32.17;95842.75;5113554;28;20397;-67
2023/08/02 09:14:10;;;;;;;7.03;6.38;;;;;;;35.91;32.83;95841.56;5113395;28;20051;-66
2023/08/02 09:16:56;;;;;;;6.88;6.22;;;;;;;35.84;33.44;95840.88;5113243;28;20043;-65
2023/08/02 09:19:27;;;;;;;7.25;6.35;;;;;;;35.77;33.35;95847.25;5113354;28;20097;-68
2023/08/02 09:22:19;;;;;;;9.18;5.88;;;;;;;35.68;32.93;95843.19;5113505;28;20055;-67
2023/08/02 09:24:47;;;;;;;6.72;6.03;;;;;;;35.77;33.14;95833.66;5094080;28;20047;-68
2023/08/02 09:27:20;;;;;;;6.72;6.00;;;;;;;35.66;32.29;95834.44;5113326;28;20052;-66
2023/08/02 09:29:49;;;;;;;8.90;6.65;;;;;;;35.04;32.92;95839.19;5112102;28;20109;-68
2023/08/02 09:32:22;;;;;;;8.57;6.10;;;;;;;34.15;34.23;95839.47;5113420;28;20047;-64
2023/08/02 09:34:54;;;;;;;7.80;6.97;;;;;;;33.96;37.33;95830.47;5117123;28;20086;-67
2023/08/02 09:37:29;;;;;;;6.70;6.00;;;;;;;33.94;36.79;95829.84;5117268;28;20044;-65
2023/08/02 09:39:58;;;;;;;6.78;5.63;;;;;;;34.05;36.68;95822.84;5117277;28;20047;-68
2023/08/02 09:42:27;;;;;;;7.13;6.22;;;;;;;34.34;36.84;95827.78;5117074;28;20401;-66
2023/08/02 09:44:57;;;;;;;7.47;6.28;;;;;;;34.46;34.24;95820.50;5117112;28;20047;-67
2023/08/02 09:47:24;;;;;;;10.18;6.65;;;;;;;34.72;34.89;95831.25;5117109;28;20140;-66
2023/08/02 09:50:08;;;;;;;6.57;5.97;;;;;;;35.03;32.98;95830.19;5117092;28;20043;-67
2023/08/02 09:52:37;;;;;;;8.23;6.50;;;;;;;35.17;34.75;95827.28;5116884;28;20065;-67
2023/08/02 09:55:05;;;;;;;11.53;6.13;;;;;;;35.33;33.42;95825.78;5116912;28;20069;-66
2023/08/02 09:57:35;;;;;;;7.28;6.43;;;;;;;35.39;32.57;95824.84;5116872;28;20048;-65
2023/08/02 10:00:06;;;;;;;6.50;5.80;;;;;;;35.10;32.99;95816.53;5116748;28;20509;-67
2023/08/02 10:02:36;;;;;;;8.98;6.18;;;;;;;34.60;32.91;95812.19;5116762;28;20048;-68
2023/08/02 10:05:07;;;;;;;11.43;6.50;;;;;;;34.58;35.14;95809.69;5116381;28;20044;-67
2023/08/02 10:07:40;;;;;;;7.80;6.22;;;;;;;34.64;34.40;95811.50;5116538;28;20104;-65
2023/08/02 10:10:13;;;;;;;7.72;6.13;;;;;;;34.69;34.10;95801.88;5116676;28;20489;-68
2023/08/02 10:12:45;;;;;;;6.80;6.20;;;;;;;34.76;33.11;95798.00;5116544;28;20485;-68
2023/08/02 10:15:12;;;;;;;8.35;6.07;;;;;;;34.77;33.36;95809.69;5116511;28;20463;-66
2023/08/02 10:17:41;;;;;;;8.45;5.65;;;;;;;34.74;32.27;95799.31;5116538;28;20075;-65
2023/08/02 10:20:12;;;;;;;7.22;6.53;;;;;;;34.44;33.68;95795.50;5116353;28;20055;-66
2023/08/02 10:22:41;;;;;;;8.40;5.68;;;;;;;34.54;34.64;95790.34;5116497;28;20044;-66
2023/08/02 10:25:10;;;;;;;6.22;5.50;;;;;;;34.61;35.27;95790.25;5116406;28;20053;-66
2023/08/02 10:27:41;;;;;;;6.55;5.97;;;;;;;34.75;33.15;95785.50;5116326;28;20048;-67
2023/08/02 10:30:12;;;;;;;7.93;6.10;;;;;;;34.82;33.32;95785.38;5116287;28;20055;-65
2023/08/02 10:32:39;;;;;;;7.05;6.30;;;;;;;35.03;33.29;95773.16;5098483;28;20484;-66
2023/08/02 10:35:07;;;;;;;7.10;6.50;;;;;;;35.07;32.55;95778.13;5116203;28;20537;-67
2023/08/02 10:37:55;;;;;;;7.07;6.38;;;;;;;34.87;31.96;95774.66;5116094;28;20039;-68
2023/08/02 10:40:25;;;;;;;7.28;6.43;;;;;;;34.94;33.89;95771.03;5116018;28;20490;-68
2023/08/02 10:43:06;;;;;;;8.23;6.65;;;;;;;34.98;33.75;95773.06;5115926;28;20069;-66
2023/08/02 10:45:35;;;;;;;7.07;6.40;;;;;;;35.05;32.07;95764.78;5115328;28;20051;-65
2023/08/02 10:48:30;;;;;;;8.98;6.18;;;;;;;34.79;31.20;95773.09;5115740;28;20486;-67
2023/08/02 10:50:59;;;;;;;6.72;6.03;;;;;;;34.63;31.13;95763.72;5097951;28;20044;-67
2023/08/02 10:53:28;;;;;;;6.07;5.32;;;;;;;34.76;31.92;95759.19;5115825;28;20520;-67
2023/08/02 10:56:16;;;;;;;8.77;5.85;;;;;;;34.95;31.72;95749.06;5115932;28;20052;-68
2023/08/02 10:58:51;;;;;;;6.35;5.75;;;;;;;34.95;30.85;95759.94;5115762;28;20089;-66
2023/08/02 11:01:24;;;;;;;6.82;5.90;;;;;;;35.17;29.54;95756.66;5115558;28;20083;-68
2023/08/02 11:03:55;;;;;;;7.03;5.10;;;;;;;35.17;30.60;95756.66;5115634;28;20055;-68
2023/08/02 11:06:29;;;;;;;5.82;5.32;;;;;;;35.22;29.44;95745.13;5115334;28;20055;-66
2023/08/02 11:08:58;;;;;;;5.80;5.28;;;;;;;35.23;29.62;95738.59;5115560;28;20105;-68
2023/08/02 11:11:35;;;;;;;5.72;5.20;;;;;;;35.30;31.07;95747.47;5115516;28;20051;-67
2023/08/02 11:14:03;;;;;;;5.72;5.22;;;;;;;35.31;28.26;95742.88;5115382;28;20378;-68
2023/08/02 11:16:31;;;;;;;5.97;5.40;;;;;;;35.26;30.83;95736.25;5115313;28;20054;-67
2023/08/02 11:18:59;;;;;;;5.57;5.07;;;;;;;35.33;29.72;95743.47;5115539;28;20071;-67
2023/08/02 11:21:26;;;;;;;9.25;5.07;;;;;;;35.15;28.19;95739.75;5115351;28;20098;-66
2023/08/02 11:24:02;;;;;;;5.70;5.30;;;;;;;35.13;28.86;95731.84;5115316;28;20053;-66
2023/08/02 11:26:29;;;;;;;9.20;4.90;;;;;;;35.05;28.77;95737.63;5115203;28;20051;-66
2023/08/02 11:28:57;;;;;;;6.00;5.40;;;;;;;34.79;29.55;95732.38;5115142;28;20050;-67
2023/08/02 11:31:25;;;;;;;6.40;5.13;;;;;;;34.88;30.45;95723.91;5115170;28;20043;-67
2023/08/02 11:33:54;;;;;;;6.57;5.45;;;;;;;34.94;30.27;95730.31;5115080;28;20040;-66
2023/08/02 11:36:21;;;;;;;6.28;5.57;;;;;;;34.78;29.03;95728.03;5115006;28;20043;-67
2023/08/02 11:38:49;;;;;;;5.78;5.28;;;;;;;35.02;31.50;95725.34;5114909;28;20092;-65